Due to severe server failure at the provider, not all demo sites are operational. Will take some days to rebuilt everything.

Demonstration site - Click on the  for more information

This is an optional block. Switch it on/off in your settings-file: $SITE['bannerTop'] = false; or $SITE['bannerBottom'] = false;

You can display ads, any other important text or photo’s using text / html or PHP code.

You can place one or more at the top and or bottom and it can all be different for content / size .



Visit our other weather sites:

Template documentation
and downloads

And another site



Nearby METAR Reports

   
EBAW - Antwerp
Updated: 03-07-2020 11:20
Mostly Cloudy  
Mostly Cloudy  
   Wind: SW 16.7 km/h
Wind: SW 16.7 km/h
Temperature: 17°C
Dew Point: 13°C
Humidity: 77%
Barometer: 1018 hPa
Clouds: Mostly Cloudy
Visibility: More than 10 km
Cloud details: Mostly Cloudy 1800 ft
EBAW 030920Z 22009KT 190V250 9999 BKN018 17/13 Q1018 NOSIG
EBLG - Liège
Updated: 03-07-2020 11:20
Mostly Cloudy  
Mostly Cloudy  
   Wind: WSW 18.5 km/h
Wind: WSW 18.5 km/h
Temperature: 16°C
Dew Point: 12°C
Humidity: 77%
Barometer: 1019 hPa
Clouds: Mostly Cloudy
Visibility: More than 10 km
Cloud details: Partly Cloudy 1200 ft,
Mostly Cloudy 1500 ft
EBLG 030920Z 24010KT 9999 SCT012 BKN015 16/12 Q1019 NOSIG
EBCV - Mons/Bergen
Updated: 03-07-2020 11:25
Mostly Cloudy  
Mostly Cloudy  
   Wind: WSW 16.7 km/h
Wind: WSW 16.7 km/h
Temperature: 18°C
Dew Point: 13°C
Humidity: 73%
Barometer: 1018 hPa
Clouds: Mostly Cloudy
Visibility: More than 10 km
Cloud details: Mostly Cloudy 1800 ft,
Mostly Cloudy 5500 ft
EBCV 030925Z AUTO 24009KT 9999 BKN018/// BKN055/// 18/13 Q1018 WHT
EHBK - Maastricht
Updated: 03-07-2020 11:25
Overcast  
Overcast  
   Wind: SW 22.2 km/h
Wind: SW 22.2 km/h
Temperature: 16°C
Dew Point: 13°C
Humidity: 83%
Barometer: 1018 hPa
Clouds: Overcast
Visibility: More than 10 km
Cloud details: Mostly Cloudy 1300 ft,
Overcast 1600 ft
EHBK 030925Z AUTO 23012KT 200V260 9999 BKN013 OVC016 16/13 Q1018 BECMG BKN015
ELLX - Luxemburg
Updated: 03-07-2020 11:20
Few Clouds  
Few Clouds  
   Wind: WSW 22.2 km/h
Wind: WSW 22.2 km/h
Temperature: 18°C
Dew Point: 8°C
Humidity: 52%
Barometer: 1020 hPa
Clouds: Few Clouds
Visibility: More than 10 km
Cloud details: Few Clouds 2600 ft
ELLX 030920Z 24012KT 200V270 9999 FEW026 18/08 Q1020 NOSIG
EBOS - Oostende
Updated: 03-07-2020 11:20
Few Clouds  
Few Clouds  
   Wind: West 37 km/h
Wind: West 37 km/h
Temperature: 18°C
Dew Point: 10°C
Humidity: 60%
Barometer: 1018 hPa
Clouds: Few Clouds
Visibility: More than 10 km
Cloud details: Few Clouds 3000 ft
EBOS 030920Z 27020KT 9999 FEW030 18/10 Q1018 NOSIG

Script developed by  Saratoga-weather.org Adapted for the template by  Weerstation Leuven

This is an optional block. Switch it on/off in your settings-file: $SITE['bannerTop'] = false; or $SITE['bannerBottom'] = false;

You can display ads, any other important text or photo’s using text / html or PHP code.

You can place one or more at the top and or bottom and it can all be different for content / size .